Sunday, March 1, 2015, 5:54 AM EST

KLNS, Lancaster Airport

Location: Lititz, PA, United States Lat: 40.117
Local Time: 5:54 AM EST (10:54 GMT) Lon: -76.3
Time Zone: US/Eastern Elev: 403 ft

Show me the last for .
Show Decoded

2015-03-01 04:53 METAR KLNS 010953Z AUTO 12003KT 7SM FEW060 OVC075 M07/M11 A3063 RMK AO2 SLP379
                 T10721106 =
2015-03-01 03:53 METAR KLNS 010853Z AUTO 08003KT 7SM OVC070 M08/M12 A3066 RMK AO2 SLP387
                 T10831117 58014 =
2015-03-01 02:53 METAR KLNS 010753Z AUTO 16003KT 6SM HZ OVC095 M09/M13 A3067 RMK AO2 SLP393
                 T10941128 =
2015-03-01 01:53 METAR KLNS 010653Z AUTO 10003KT 5SM HZ CLR M11/M14 A3068 RMK AO2 SLP398
                 T11061144 =
2015-03-01 00:53 METAR KLNS 010553Z AUTO 00000KT 6SM HZ CLR M09/M14 A3070 RMK AO2 SLP403
                 T10941144 11044 21106 55015 =
2015-02-28 23:53 METAR KLNS 010453Z AUTO 07003KT 9SM CLR M10/M16 A3069 RMK AO2 SLP401 T11001156
                 410331133 =
2015-02-28 22:53 METAR KLNS 010353Z AUTO 11003KT 7SM CLR M09/M16 A3072 RMK AO2 SLP409 T10891161 =
2015-02-28 21:53 METAR KLNS 010253Z AUTO 00000KT 9SM CLR M08/M15 A3075 RMK AO2 SLP419 T10781150
                 53002 =
2015-02-28 20:53 METAR KLNS 010153Z AUTO 00000KT 10SM CLR M07/M17 A3074 RMK AO2 SLP419 T10671172
                 =
2015-02-28 19:53 METAR KLNS 010053Z 12003KT 10SM CLR M07/M18 A3074 RMK AO2 SLP415 T10671178 =
2015-02-28 18:53 METAR KLNS 282353Z 00000KT 10SM CLR M04/M19 A3074 RMK AO2 SLP417 T10441189 11033
                 21061 53001 =
2015-02-28 17:53 METAR KLNS 282253Z 00000KT 10SM CLR M05/M18 A3073 RMK AO2 SLP414 T10501183 =
2015-02-28 16:53 METAR KLNS 282153Z 31003KT 10SM CLR M04/M18 A3073 RMK AO2 SLP414 T10391183 =
2015-02-28 15:53 METAR KLNS 282053Z 00000KT 10SM CLR M04/M20 A3074 RMK AO2 SLP416 T10391200 56021
                 =
2015-02-28 14:53 METAR KLNS 281953Z 29005KT 10SM CLR M04/M18 A3075 RMK AO2 SLP420 T10441178 =
2015-02-28 13:53 METAR KLNS 281853Z 29004KT 10SM CLR M06/M18 A3077 RMK AO2 SLP427 T10561178 =
2015-02-28 11:53 METAR KLNS 281653Z 27004KT 10SM CLR M07/M19 A3082 RMK AO2 SLP446 T10671194 =
2015-02-28 09:53 METAR KLNS 281453Z 04003KT 10SM CLR M08/M19 A3082 RMK AO2 SLP445 T10831194 51015
                 =
2015-02-28 08:53 METAR KLNS 281353Z 36007KT 10SM CLR M09/M19 A3081 RMK AO2 SLP440 T10891194 =
2015-02-28 07:53 METAR KLNS 281253Z 30005KT 10SM CLR M11/M19 A3080 RMK AO2 SLP436 T11111189 =
2015-02-28 06:53 METAR KLNS 281153Z 31004KT 10SM CLR M12/M19 A3078 RMK AO2 SLP430 T11221194 11094
                 21133 51024 =

Support USWX by starting your Amazon purchase here.